Latest Weather Observations for Nullo Mountain

IDN60801

Issued at 6:23 pm EST Saturday 9 May 2026 (issued every 10 minutes, with the page automatically refreshed every 10 minutes)

About weather observations | Map of weather stations | Latest weather observations for NSW | Other Formats
Station Details ID: 062100 Name: NULLO MOUNTAIN AWS Lat: -32.72 Lon: 150.23 Height: 1130.0 m
Data from the previous 72 hours. | See also: Recent months at Nullo Mountain
Date/Time
EST
Temp
°C
App
Temp
°C
Dew
Point
°C
Rel
Hum
%
Delta-T
°C
Wind Press
QNH
hPa
Press
MSL
hPa
Rain since
9am
mm
Dir  Spd
km/h
Gust
km/h
Spd
kts
Gust
kts
09/06:00pm 8.3 6.2 3.8 73 2.1 SE 4 4 2 2 - - 0.0
09/05:30pm 10.5 8.4 3.8 63 3.2 SE 4 6 2 3 - - 0.0
09/05:00pm 12.4 10.2 3.4 54 4.3 S 4 6 2 3 - - 0.0
09/04:30pm 13.8 11.6 3.3 49 5.0 SSW 4 7 2 4 - - 0.0
09/04:00pm 14.3 11.6 3.5 48 5.2 SSW 7 9 4 5 - - 0.0
09/03:30pm 14.5 12.1 4.2 50 5.1 W 6 11 3 6 - - 0.0
09/03:00pm 15.3 13.2 4.1 47 5.5 WNW 4 9 2 5 - - 0.0
09/02:30pm 14.8 12.2 4.2 49 5.2 SW 7 13 4 7 - - 0.0
09/02:00pm 15.1 12.6 4.8 50 5.1 S 7 13 4 7 - - 0.0
09/01:30pm 14.2 11.1 3.7 49 5.1 SW 9 13 5 7 - - 0.0
09/01:00pm 14.4 11.8 4.1 50 5.0 SW 7 11 4 6 - - 0.0
09/12:30pm 14.9 12.5 4.3 49 5.2 NW 6 9 3 5 - - 0.0
09/12:00pm 14.2 11.9 4.8 53 4.7 SW 6 11 3 6 - - 0.0
09/11:30am 12.7 10.2 3.9 55 4.2 SSW 6 11 3 6 - - 0.0
09/11:00am 12.8 10.8 4.5 57 4.0 SSW 4 9 2 5 - - 0.0
09/10:30am 12.6 10.6 4.6 58 3.9 N 4 9 2 5 - - 0.0
09/10:00am 11.4 9.7 3.9 60 3.6 E 2 7 1 4 - - 0.0
09/09:30am 10.6 8.0 4.3 65 3.0 E 7 13 4 7 - - 0.0
09/09:00am 9.8 6.8 4.2 68 2.7 E 9 15 5 8 - - 0.0
09/08:30am 9.4 6.4 4.2 70 2.5 ESE 9 13 5 7 - - 0.0
09/08:00am 8.3 5.7 4.1 75 2.0 ESE 7 11 4 6 - - 0.0
09/07:30am 6.3 3.7 4.1 86 1.0 ESE 7 9 4 5 - - 0.0
09/07:00am 3.6 0.7 2.4 92 0.5 ESE 7 9 4 5 - - 0.0
09/06:30am 3.6 0.8 2.3 91 0.6 SE 6 9 3 5 - - 0.0
09/06:00am 5.5 2.9 3.0 84 1.1 SE 6 7 3 4 - - 0.0
09/05:30am 4.6 2.0 3.3 91 0.6 SE 6 9 3 5 - - 0.0
09/05:00am 4.5 2.0 3.5 93 0.4 S 6 7 3 4 - - 0.0
09/04:30am 4.5 2.0 3.5 93 0.4 S 6 7 3 4 - - 0.0
09/04:00am 5.3 2.3 4.1 92 0.5 SSW 9 11 5 6 - - 0.0
09/03:30am 5.4 2.5 4.4 93 0.5 SSW 9 13 5 7 - - 0.0
09/03:00am 5.6 2.3 4.6 93 0.5 SSW 11 15 6 8 - - 0.0
09/02:30am 5.7 2.0 4.7 93 0.5 SSW 13 17 7 9 - - 0.0
09/02:00am 5.4 2.0 4.2 92 0.5 SSW 11 17 6 9 - - 0.0
09/01:30am 5.7 2.4 4.5 92 0.6 SSW 11 15 6 8 - - 0.0
09/01:00am 5.7 2.0 4.3 91 0.6 SW 13 20 7 11 - - 0.0
09/12:30am 5.6 1.9 4.2 91 0.6 SW 13 17 7 9 - - 0.0
09/12:00am 5.7 2.0 4.3 91 0.6 SSW 13 19 7 10 - - 0.0
 
Date/Time
EST
Temp
°C
App
Temp
°C
Dew
Point
°C
Rel
Hum
%
Delta-T
°C
Wind Press
QNH
hPa
Press
MSL
hPa
Rain since
9am
mm
Dir  Spd
km/h
Gust
km/h
Spd
kts
Gust
kts
08/11:30pm 5.8 1.7 4.1 89 0.8 SSW 15 20 8 11 - - 0.0
08/11:00pm 5.7 3.1 4.0 89 0.8 SSW 7 15 4 8 - - 0.0
08/10:30pm 5.8 3.2 4.0 88 0.8 SW 7 15 4 8 - - 0.0
08/10:00pm 6.1 1.6 4.3 88 0.8 SSW 17 26 9 14 - - 0.0
08/09:30pm 6.2 2.1 4.2 87 0.9 SSW 15 24 8 13 - - 0.0
08/09:00pm 6.3 2.2 4.1 86 1.0 SW 15 28 8 15 - - 0.0
08/08:30pm 6.3 2.2 4.1 86 1.0 SW 15 24 8 13 - - 0.0
08/08:00pm 6.2 1.7 4.0 86 1.0 SW 17 30 9 16 - - 0.0
08/07:30pm 6.1 1.5 3.8 85 1.0 SW 17 26 9 14 - - 0.0
08/07:00pm 6.1 1.5 3.6 84 1.1 WSW 17 28 9 15 - - 0.0
08/06:30pm 6.2 2.3 3.5 83 1.2 WSW 13 24 7 13 - - 0.0
08/06:00pm 6.3 1.7 3.5 82 1.3 WSW 17 28 9 15 - - 0.0
08/05:30pm 6.8 2.5 3.2 78 1.6 WSW 15 24 8 13 - - 0.0
08/05:00pm 7.2 2.1 3.3 76 1.8 WSW 19 39 10 21 - - 0.0
08/04:30pm 8.0 2.0 3.3 72 2.1 WSW 24 43 13 23 - - 0.0
08/04:00pm 9.1 3.8 3.1 66 2.8 WSW 20 35 11 19 - - 0.0
08/03:30pm 9.2 3.9 2.8 64 2.9 W 20 37 11 20 - - 0.0
08/03:00pm 10.8 6.1 3.4 60 3.5 WSW 17 33 9 18 - - 0.0
08/02:30pm 10.4 5.4 3.4 62 3.3 WSW 19 35 10 19 - - 0.0
08/02:00pm 10.5 5.2 3.1 60 3.4 W 20 39 11 21 - - 0.0
08/01:30pm 10.5 5.4 3.3 61 3.4 W 19 32 10 17 - - 0.0
08/01:00pm 9.2 4.0 3.4 67 2.7 W 20 32 11 17 - - 0.0
08/12:30pm 9.1 3.9 3.7 69 2.5 W 20 33 11 18 - - 0.0
08/12:00pm 8.1 2.0 3.0 70 2.3 WSW 24 46 13 25 - - 0.0
08/11:30am 8.1 2.4 3.0 70 2.3 W 22 35 12 19 - - 0.0
08/11:00am 7.4 2.0 2.7 72 2.1 W 20 33 11 18 - - 0.0
08/10:30am 6.9 2.1 2.4 73 2.0 W 17 30 9 16 - - 0.0
08/10:00am 6.3 -0.2 2.4 76 1.7 WSW 26 39 14 21 - - 0.0
08/09:30am 5.5 -0.7 2.0 78 1.5 WSW 24 39 13 21 - - 0.0
08/09:00am 4.8 0.2 1.8 81 1.3 W 15 30 8 16 - - 0.2
08/08:30am 4.1 -0.9 1.5 83 1.1 WSW 17 28 9 15 - - 0.2
08/08:00am 3.1 -1.6 1.0 86 0.9 WSW 15 28 8 15 - - 0.2
08/07:30am 2.9 -2.1 1.1 88 0.7 WSW 17 26 9 14 - - 0.2
08/07:00am 2.5 -1.8 0.9 89 0.7 W 13 26 7 14 - - 0.2
08/06:30am 2.2 -3.5 0.7 90 0.6 WSW 20 32 11 17 - - 0.2
08/06:00am 2.0 -4.1 0.7 91 0.5 WSW 22 39 12 21 - - 0.2
08/05:30am 1.4 -4.2 0.1 91 0.5 WSW 19 30 10 16 - - 0.2
08/05:00am 0.8 -5.1 -0.5 91 0.5 WSW 20 33 11 18 - - 0.2
08/04:30am 0.8 -5.1 -0.6 90 0.5 WSW 20 30 11 16 - - 0.2
08/04:00am 0.6 -4.0 -0.8 90 0.5 W 13 20 7 11 - - 0.2
08/03:30am 0.8 -4.2 -1.0 88 0.7 W 15 24 8 13 - - 0.2
08/03:00am 1.1 -4.8 -0.8 87 0.7 WSW 20 30 11 16 - - 0.2
08/02:30am 0.9 -5.0 -1.0 87 0.7 WSW 20 33 11 18 - - 0.2
08/02:00am 1.3 -5.0 -0.9 85 0.8 WSW 22 39 12 21 - - 0.2
08/01:30am 1.1 -5.2 -1.1 85 0.8 WSW 22 39 12 21 - - 0.2
08/01:00am 0.8 -5.9 -1.4 85 0.9 WSW 24 41 13 22 - - 0.2
08/12:30am 0.6 -5.2 -1.8 84 0.9 WSW 19 33 10 18 - - 0.2
08/12:00am 0.6 -5.3 -1.9 83 1.0 WSW 19 32 10 17 - - 0.2
 
Date/Time
EST
Temp
°C
App
Temp
°C
Dew
Point
°C
Rel
Hum
%
Delta-T
°C
Wind Press
QNH
hPa
Press
MSL
hPa
Rain since
9am
mm
Dir  Spd
km/h
Gust
km/h
Spd
kts
Gust
kts
07/11:30pm 0.7 -4.8 -2.0 82 1.0 WSW 17 33 9 18 - - 0.2
07/11:00pm 0.8 -4.7 -1.9 82 1.1 W 17 28 9 15 - - 0.2
07/10:30pm 0.8 -5.1 -2.2 80 1.2 WSW 19 35 10 19 - - 0.2
07/10:00pm 0.9 -4.7 -2.5 78 1.3 WSW 17 28 9 15 - - 0.2
07/09:30pm 1.2 -4.0 -2.5 76 1.4 W 15 28 8 15 - - 0.2
07/09:00pm 1.5 -4.6 -2.6 74 1.6 WSW 20 41 11 22 - - 0.2
07/08:30pm 1.6 -4.6 -2.9 72 1.7 WSW 20 41 11 22 - - 0.2
07/08:00pm 1.8 -3.8 -3.1 70 1.8 WSW 17 33 9 18 - - 0.2
07/07:30pm 2.2 -2.7 -3.3 67 2.0 W 13 22 7 12 - - 0.2
07/07:00pm 2.4 -1.8 -3.5 65 2.2 W 9 19 5 10 - - 0.2
07/06:30pm 2.8 -2.5 -3.5 63 2.3 W 15 26 8 14 - - 0.2
07/06:00pm 3.0 -2.0 -4.0 60 2.5 WSW 13 20 7 11 - - 0.2
07/05:30pm 3.3 -1.7 -4.4 57 2.8 W 13 28 7 15 - - 0.2
07/05:00pm 3.9 -1.5 -4.3 55 3.0 W 15 32 8 17 - - 0.2
07/04:30pm 4.7 -1.2 -5.4 48 3.6 W 17 32 9 17 - - 0.2
07/04:00pm 5.2 -1.3 -5.7 45 3.9 WSW 20 41 11 22 - - 0.2
07/03:30pm 5.6 -0.6 -5.1 46 3.9 W 19 32 10 17 - - 0.2
07/03:00pm 6.1 0.2 -5.2 44 4.1 WSW 17 30 9 16 - - 0.2
07/02:30pm 6.6 -0.2 -5.4 42 4.4 SW 22 39 12 21 - - 0.2
07/02:00pm 7.2 1.0 -4.5 43 4.4 WSW 19 41 10 22 - - 0.2
07/01:30pm 6.6 -1.6 -4.2 46 4.1 WSW 30 52 16 28 - - 0.0
07/01:24pm 6.2 -1.7 -4.8 45 4.1 W 28 52 15 28 - - 0.0
07/01:00pm 6.2 -0.1 -3.7 49 3.8 W 20 35 11 19 - - 0.0
07/12:30pm 7.2 0.4 -1.5 54 3.5 W 24 43 13 23 - - 0.0
07/12:00pm 6.8 0.3 -2.6 51 3.7 W 22 43 12 23 - - 0.0
07/11:30am 7.2 1.0 2.3 71 2.2 W 24 43 13 23 - - 0.0
07/11:00am 6.3 1.1 3.3 81 1.4 W 20 43 11 23 - - 0.0
07/10:30am 6.4 1.3 4.1 85 1.1 W 20 39 11 21 - - 0.0
07/10:00am 5.5 1.1 4.6 94 0.4 W 17 35 9 19 - - 0.0
07/09:30am 5.7 0.7 4.8 94 0.4 W 20 41 11 22 - - 0.0
07/09:00am 5.5 0.6 4.3 92 0.5 W 19 44 10 24 - - 0.0
07/08:30am 5.0 -0.1 4.0 93 0.5 W 20 43 11 23 - - 0.0
07/08:00am 4.8 0.2 3.8 93 0.4 W 17 28 9 15 - - 0.0
07/07:30am 4.3 0.5 3.7 96 0.3 W 13 24 7 13 - - 0.0
07/07:00am 3.8 0.7 3.4 97 0.2 WNW 9 19 5 10 - - 0.0
07/06:30am 3.9 -0.4 3.3 96 0.3 W 15 28 8 15 - - 0.0
07/06:00am 4.2 -0.8 3.8 97 0.2 W 19 33 10 18 - - 0.0
07/05:30am 4.2 0.0 3.9 98 0.1 W 15 33 8 18 - - 0.0
07/05:00am 4.5 1.5 4.2 98 0.1 W 9 17 5 9 - - 0.0
07/04:30am 4.7 0.6 4.3 97 0.2 W 15 26 8 14 - - 0.0
07/04:00am 4.6 1.2 4.0 96 0.3 W 11 19 6 10 - - 0.0
07/03:30am 4.8 1.8 4.2 96 0.3 WNW 9 17 5 9 - - 0.0
07/03:00am 5.2 2.2 4.3 94 0.4 W 9 17 5 9 - - 0.0
07/02:30am 5.6 1.9 4.7 94 0.4 W 13 22 7 12 - - 0.0
07/02:00am 5.6 3.3 4.9 95 0.3 W 6 13 3 7 - - 0.0
07/01:30am 6.0 3.6 5.3 95 0.3 WNW 7 15 4 8 - - 0.0
07/01:00am 6.5 4.3 5.3 92 0.6 WNW 6 13 3 7 - - 0.0
07/12:30am 7.2 5.0 5.5 89 0.8 NW 6 9 3 5 - - 0.0
07/12:00am 7.3 5.1 5.1 86 1.0 NW 6 7 3 4 - - 0.0
 
Date/Time
EST
Temp
°C
App
Temp
°C
Dew
Point
°C
Rel
Hum
%
Delta-T
°C
Wind Press
QNH
hPa
Press
MSL
hPa
Rain since
9am
mm
Dir  Spd
km/h
Gust
km/h
Spd
kts
Gust
kts
06/11:30pm 7.8 5.9 5.1 83 1.3 NW 4 7 2 4 - - 0.0
06/11:00pm 8.2 6.0 5.1 81 1.5 NW 6 9 3 5 - - 0.0
06/10:30pm 8.6 6.4 5.2 79 1.6 WNW 6 7 3 4 - - 0.0
06/10:00pm 9.0 6.7 4.6 74 2.1 NW 6 7 3 4 - - 0.0
06/09:30pm 9.6 7.5 4.0 68 2.6 WNW 4 7 2 4 - - 0.0
06/09:00pm 10.3 8.2 4.0 65 3.0 W 4 7 2 4 - - 0.0
06/08:30pm 10.8 8.8 4.3 64 3.1 WNW 4 7 2 4 - - 0.0
06/08:00pm 11.1 9.2 5.0 66 3.0 NNW 4 6 2 3 - - 0.0
06/07:30pm 11.0 9.1 4.9 66 3.0 WNW 4 7 2 4 - - 0.0
06/07:00pm 11.3 9.4 5.0 65 3.1 NW 4 6 2 3 - - 0.0
06/06:30pm 11.3 9.5 5.2 66 3.0 NNW 4 7 2 4 - - 0.0

Other formats

Comma delimited format used in spreadsheet applications
http://www.bom.gov.au/fwo/IDN60801/IDN60801.94754.axf

JavaScript Object Notation format (JSON) in row-major order
http://www.bom.gov.au/fwo/IDN60801/IDN60801.94754.json

Data quality

Most of these data are generated automatically and are frequently updated. Quality checks on data are not normally performed. It is possible for incorrect values to appear. Refer to information at About Latest Weather Observations and please check the disclaimer before using these data.